Rockwell, NC (28138)

7:23 AM EST on December 07, 2016 (GMT -0500)
RockGrove | | Change Station
Active Advisory: Dense Fog Advisory

Elev 856 ft 35.55 °N, 80.48 °W | Updated 14 minutes ago

Mist
Mist
36.3 °F
Feels Like 36 °F
N
1.0
Wind Variable Wind from North
Gusts 3.0 mph

Today
High -- | Low -- °F
--% Chance of Precip.
Yesterday
High -- | Low -- °F
Precip. -- in
Pressure 30.01 in
Visibility 1.2 miles
Clouds
Windchill 36 °F
Dew Point 36 °F
Humidity 97%
Rainfall 0.00 in
Snow Depth Not available.
7:18 AM 5:08 PM
First Quarter, 52% visible
METAR KRUQ 071205Z AUTO 00000KT 1 1/4SM BR VV007 00/00 A3001 RMK AO2 T10021002
Pressure 30.01 in
Visibility 1.2 miles
Clouds
Windchill 36 °F
Dew Point 36 °F
Humidity 97%
Rainfall 0.00 in
Snow Depth Not available.
7:18 AM 5:08 PM
First Quarter, 52% visible
METAR KRUQ 071205Z AUTO 00000KT 1 1/4SM BR VV007 00/00 A3001 RMK AO2 T10021002

10-Day Weather Forecast

Almanac

Astronomy

Dec. 07, 2016 Rise Set
Actual Time
Civil Twilight
Nautical Twilight
Astronomical Twilight
Moon
Length of Visible Light
Length of Day
Tomorrow will be .
, % of the Moon is Illuminated

Today's Extremes

State Highs State Lows

Community

WunderPhotos

Upload Photos

1,956,111 photos uploaded!

WunderBlog® & News

Nearby

Air Quality

  Air Quality AQ Index Pollutant
Not available.

Snow Depth

Station Depth Elevation

Earthquake Activity

City Distance Mag. Time & Date
Minimum magnitude displayed is 2.5.

Coastal Water Temperatures

Place Temperature

Stations

Nearby Weather Stations

Station Location Temp. Windchill Dew Point Humidity Wind Precip. Elev Updated Type
                   

Watches & Warnings

Dense Fog Advisory
Issued: 2:44 AM EST Dec. 7, 2016 – National Weather Service

... Dense fog advisory in effect until 10 am EST this morning...

The National Weather Service in Greenville-Spartanburg has issued
a dense fog advisory... which is in effect until 10 am EST this
morning.

* Locations... the Piedmont of the Carolinas and northeast Georgia

* visibility... 1/4 to 1/2 mile or less.

* Impacts... reduced visibilities may lead to hazardous driving
conditions.

Precautionary/preparedness actions...

A dense fog advisory means visibilities will frequently be
reduced to less than one quarter mile. If driving... slow down...
use your headlights... and leave plenty of distance ahead of you.





244 am EST Wed Dec 7 2016

... Dense fog advisory in effect until 10 am EST this morning...

The National Weather Service in Greenville-Spartanburg has issued
a dense fog advisory... which is in effect until 10 am EST this
morning.

* Locations... the Piedmont of the Carolinas and northeast Georgia

* visibility... 1/4 to 1/2 mile or less.

* Impacts... reduced visibilities may lead to hazardous driving
conditions.

Precautionary/preparedness actions...

A dense fog advisory means visibilities will frequently be
reduced to less than one quarter mile. If driving... slow down...
use your headlights... and leave plenty of distance ahead of you.